sensor_id;sensor_type;location;lat;lon;timestamp;P1;durP1;ratioP1;P2;durP2;ratioP2
49241;SDS011;35079;52.704;13.814;2023-02-28T00:01:31;5.85;;;3.53;;
49241;SDS011;35079;52.704;13.814;2023-02-28T00:03:57;7.43;;;3.80;;
49241;SDS011;35079;52.704;13.814;2023-02-28T00:06:23;7.70;;;3.72;;
49241;SDS011;35079;52.704;13.814;2023-02-28T00:08:49;7.30;;;3.55;;
49241;SDS011;35079;52.704;13.814;2023-02-28T00:11:15;6.35;;;3.33;;
49241;SDS011;35079;52.704;13.814;2023-02-28T00:13:42;10.23;;;3.58;;
49241;SDS011;35079;52.704;13.814;2023-02-28T00:16:12;5.70;;;3.78;;
49241;SDS011;35079;52.704;13.814;2023-02-28T00:18:40;7.30;;;3.47;;
49241;SDS011;35079;52.704;13.814;2023-02-28T00:21:06;7.40;;;3.92;;
49241;SDS011;35079;52.704;13.814;2023-02-28T00:23:32;7.22;;;3.75;;
49241;SDS011;35079;52.704;13.814;2023-02-28T00:25:57;6.72;;;3.30;;
49241;SDS011;35079;52.704;13.814;2023-02-28T00:28:23;6.80;;;3.78;;
49241;SDS011;35079;52.704;13.814;2023-02-28T00:30:49;6.65;;;3.78;;
49241;SDS011;35079;52.704;13.814;2023-02-28T00:33:14;7.95;;;3.70;;
49241;SDS011;35079;52.704;13.814;2023-02-28T00:35:40;7.40;;;4.60;;
49241;SDS011;35079;52.704;13.814;2023-02-28T00:38:06;7.32;;;3.92;;
49241;SDS011;35079;52.704;13.814;2023-02-28T00:40:33;7.28;;;4.22;;
49241;SDS011;35079;52.704;13.814;2023-02-28T00:42:59;8.65;;;3.70;;
49241;SDS011;35079;52.704;13.814;2023-02-28T00:45:24;9.02;;;4.05;;
49241;SDS011;35079;52.704;13.814;2023-02-28T00:47:51;7.88;;;4.15;;
49241;SDS011;35079;52.704;13.814;2023-02-28T00:50:17;7.95;;;4.05;;
49241;SDS011;35079;52.704;13.814;2023-02-28T00:52:44;9.13;;;4.65;;
49241;SDS011;35079;52.704;13.814;2023-02-28T00:55:11;11.15;;;4.97;;
49241;SDS011;35079;52.704;13.814;2023-02-28T00:57:36;6.03;;;3.85;;
49241;SDS011;35079;52.704;13.814;2023-02-28T01:00:02;7.72;;;4.30;;
49241;SDS011;35079;52.704;13.814;2023-02-28T01:02:29;8.27;;;4.63;;
49241;SDS011;35079;52.704;13.814;2023-02-28T01:04:55;9.80;;;4.68;;
49241;SDS011;35079;52.704;13.814;2023-02-28T01:07:21;9.43;;;4.47;;
49241;SDS011;35079;52.704;13.814;2023-02-28T01:09:47;11.82;;;5.05;;
49241;SDS011;35079;52.704;13.814;2023-02-28T01:12:13;9.82;;;4.80;;
49241;SDS011;35079;52.704;13.814;2023-02-28T01:14:39;9.68;;;4.50;;
49241;SDS011;35079;52.704;13.814;2023-02-28T01:17:04;11.65;;;5.07;;
49241;SDS011;35079;52.704;13.814;2023-02-28T01:19:30;8.57;;;4.28;;
49241;SDS011;35079;52.704;13.814;2023-02-28T01:21:56;10.63;;;4.78;;
49241;SDS011;35079;52.704;13.814;2023-02-28T01:24:21;8.20;;;4.38;;
49241;SDS011;35079;52.704;13.814;2023-02-28T01:26:47;8.02;;;4.70;;
49241;SDS011;35079;52.704;13.814;2023-02-28T01:29:12;12.00;;;4.70;;
49241;SDS011;35079;52.704;13.814;2023-02-28T01:31:38;9.15;;;4.82;;
49241;SDS011;35079;52.704;13.814;2023-02-28T01:34:03;9.27;;;4.85;;
49241;SDS011;35079;52.704;13.814;2023-02-28T01:36:29;8.23;;;4.60;;
49241;SDS011;35079;52.704;13.814;2023-02-28T01:38:55;12.20;;;5.50;;
49241;SDS011;35079;52.704;13.814;2023-02-28T01:41:22;8.20;;;4.15;;
49241;SDS011;35079;52.704;13.814;2023-02-28T01:44:03;10.25;;;4.78;;
49241;SDS011;35079;52.704;13.814;2023-02-28T01:46:31;10.43;;;4.45;;
49241;SDS011;35079;52.704;13.814;2023-02-28T01:49:03;7.43;;;4.22;;
49241;SDS011;35079;52.704;13.814;2023-02-28T01:54:11;9.70;;;5.10;;
49241;SDS011;35079;52.704;13.814;2023-02-28T01:56:44;9.02;;;5.10;;
49241;SDS011;35079;52.704;13.814;2023-02-28T01:59:53;7.95;;;4.57;;
49241;SDS011;35079;52.704;13.814;2023-02-28T02:02:19;10.52;;;4.95;;
49241;SDS011;35079;52.704;13.814;2023-02-28T02:04:51;6.68;;;4.22;;
49241;SDS011;35079;52.704;13.814;2023-02-28T02:07:32;9.13;;;4.63;;
49241;SDS011;35079;52.704;13.814;2023-02-28T02:15:49;10.88;;;5.13;;
49241;SDS011;35079;52.704;13.814;2023-02-28T02:18:51;9.88;;;5.32;;
49241;SDS011;35079;52.704;13.814;2023-02-28T02:40:20;12.13;;;5.18;;
49241;SDS011;35079;52.704;13.814;2023-02-28T02:43:16;12.13;;;5.60;;
49241;SDS011;35079;52.704;13.814;2023-02-28T02:45:59;11.93;;;5.88;;
49241;SDS011;35079;52.704;13.814;2023-02-28T02:48:30;9.73;;;5.38;;
49241;SDS011;35079;52.704;13.814;2023-02-28T02:50:59;9.98;;;5.43;;
49241;SDS011;35079;52.704;13.814;2023-02-28T02:53:29;10.60;;;5.68;;
49241;SDS011;35079;52.704;13.814;2023-02-28T02:55:58;10.10;;;5.40;;
49241;SDS011;35079;52.704;13.814;2023-02-28T02:58:26;10.80;;;5.65;;
49241;SDS011;35079;52.704;13.814;2023-02-28T03:00:57;9.63;;;5.78;;
49241;SDS011;35079;52.704;13.814;2023-02-28T03:03:26;13.60;;;6.30;;
49241;SDS011;35079;52.704;13.814;2023-02-28T03:05:55;10.02;;;5.95;;
49241;SDS011;35079;52.704;13.814;2023-02-28T03:08:25;11.38;;;6.13;;
49241;SDS011;35079;52.704;13.814;2023-02-28T03:10:52;11.77;;;5.72;;
49241;SDS011;35079;52.704;13.814;2023-02-28T03:15:58;11.50;;;6.10;;
49241;SDS011;35079;52.704;13.814;2023-02-28T03:19:02;14.43;;;6.05;;
49241;SDS011;35079;52.704;13.814;2023-02-28T03:24:19;14.65;;;6.38;;
49241;SDS011;35079;52.704;13.814;2023-02-28T03:27:01;11.48;;;6.15;;
49241;SDS011;35079;52.704;13.814;2023-02-28T03:29:35;13.98;;;6.68;;
49241;SDS011;35079;52.704;13.814;2023-02-28T03:32:11;11.88;;;5.90;;
49241;SDS011;35079;52.704;13.814;2023-02-28T03:34:48;14.15;;;7.03;;
49241;SDS011;35079;52.704;13.814;2023-02-28T03:37:22;13.73;;;6.43;;
49241;SDS011;35079;52.704;13.814;2023-02-28T03:39:53;13.00;;;6.88;;
49241;SDS011;35079;52.704;13.814;2023-02-28T03:42:25;15.35;;;7.45;;
49241;SDS011;35079;52.704;13.814;2023-02-28T03:44:56;14.10;;;6.43;;
49241;SDS011;35079;52.704;13.814;2023-02-28T03:47:26;13.77;;;6.57;;
49241;SDS011;35079;52.704;13.814;2023-02-28T03:49:59;13.30;;;7.18;;
49241;SDS011;35079;52.704;13.814;2023-02-28T03:52:28;13.18;;;6.25;;
49241;SDS011;35079;52.704;13.814;2023-02-28T03:55:00;13.65;;;6.90;;
49241;SDS011;35079;52.704;13.814;2023-02-28T03:57:37;13.63;;;6.45;;
49241;SDS011;35079;52.704;13.814;2023-02-28T04:00:27;14.68;;;6.65;;
49241;SDS011;35079;52.704;13.814;2023-02-28T04:03:04;13.63;;;6.90;;
49241;SDS011;35079;52.704;13.814;2023-02-28T04:05:30;14.60;;;7.45;;
49241;SDS011;35079;52.704;13.814;2023-02-28T04:08:03;15.93;;;7.30;;
49241;SDS011;35079;52.704;13.814;2023-02-28T04:10:35;14.80;;;6.90;;
49241;SDS011;35079;52.704;13.814;2023-02-28T04:13:00;13.80;;;7.05;;
49241;SDS011;35079;52.704;13.814;2023-02-28T04:15:26;12.65;;;6.50;;
49241;SDS011;35079;52.704;13.814;2023-02-28T04:17:52;16.48;;;7.25;;
49241;SDS011;35079;52.704;13.814;2023-02-28T04:20:18;19.02;;;7.30;;
49241;SDS011;35079;52.704;13.814;2023-02-28T04:22:43;15.85;;;6.75;;
49241;SDS011;35079;52.704;13.814;2023-02-28T04:25:09;13.68;;;6.50;;
49241;SDS011;35079;52.704;13.814;2023-02-28T04:27:35;12.57;;;6.13;;
49241;SDS011;35079;52.704;13.814;2023-02-28T04:30:00;14.40;;;6.53;;
49241;SDS011;35079;52.704;13.814;2023-02-28T04:32:26;14.00;;;6.07;;
49241;SDS011;35079;52.704;13.814;2023-02-28T04:34:51;14.40;;;6.75;;
49241;SDS011;35079;52.704;13.814;2023-02-28T04:37:17;11.15;;;6.32;;
49241;SDS011;35079;52.704;13.814;2023-02-28T04:39:43;10.18;;;6.05;;
49241;SDS011;35079;52.704;13.814;2023-02-28T04:42:09;11.27;;;5.82;;
49241;SDS011;35079;52.704;13.814;2023-02-28T04:44:35;11.30;;;6.30;;
49241;SDS011;35079;52.704;13.814;2023-02-28T04:47:03;12.43;;;5.90;;
49241;SDS011;35079;52.704;13.814;2023-02-28T04:49:29;11.77;;;6.18;;
49241;SDS011;35079;52.704;13.814;2023-02-28T04:51:55;10.18;;;5.57;;
49241;SDS011;35079;52.704;13.814;2023-02-28T04:54:20;12.63;;;6.13;;
49241;SDS011;35079;52.704;13.814;2023-02-28T04:56:46;11.23;;;5.72;;
49241;SDS011;35079;52.704;13.814;2023-02-28T04:59:14;16.42;;;6.72;;
49241;SDS011;35079;52.704;13.814;2023-02-28T05:01:40;14.48;;;6.63;;
49241;SDS011;35079;52.704;13.814;2023-02-28T05:04:10;13.10;;;6.43;;
49241;SDS011;35079;52.704;13.814;2023-02-28T05:06:35;15.20;;;6.53;;
49241;SDS011;35079;52.704;13.814;2023-02-28T05:09:01;15.07;;;6.40;;
49241;SDS011;35079;52.704;13.814;2023-02-28T05:11:31;9.32;;;5.43;;
49241;SDS011;35079;52.704;13.814;2023-02-28T05:14:05;13.30;;;5.93;;
49241;SDS011;35079;52.704;13.814;2023-02-28T05:16:35;12.13;;;5.63;;
49241;SDS011;35079;52.704;13.814;2023-02-28T05:19:01;13.80;;;5.95;;
49241;SDS011;35079;52.704;13.814;2023-02-28T05:24:03;11.27;;;5.85;;
49241;SDS011;35079;52.704;13.814;2023-02-28T05:26:33;15.35;;;6.40;;
49241;SDS011;35079;52.704;13.814;2023-02-28T05:29:00;13.75;;;6.07;;
49241;SDS011;35079;52.704;13.814;2023-02-28T05:31:25;12.52;;;5.78;;
49241;SDS011;35079;52.704;13.814;2023-02-28T05:33:51;13.73;;;6.43;;
49241;SDS011;35079;52.704;13.814;2023-02-28T05:36:17;11.38;;;5.78;;
49241;SDS011;35079;52.704;13.814;2023-02-28T05:38:42;12.75;;;5.72;;
49241;SDS011;35079;52.704;13.814;2023-02-28T05:41:10;10.38;;;5.35;;
49241;SDS011;35079;52.704;13.814;2023-02-28T05:43:36;14.07;;;5.55;;
49241;SDS011;35079;52.704;13.814;2023-02-28T05:46:03;10.13;;;5.65;;
49241;SDS011;35079;52.704;13.814;2023-02-28T05:48:33;17.35;;;6.05;;
49241;SDS011;35079;52.704;13.814;2023-02-28T05:51:00;12.52;;;5.55;;
49241;SDS011;35079;52.704;13.814;2023-02-28T05:53:27;12.00;;;5.80;;
49241;SDS011;35079;52.704;13.814;2023-02-28T05:55:53;11.35;;;5.88;;
49241;SDS011;35079;52.704;13.814;2023-02-28T05:58:18;16.80;;;5.53;;
49241;SDS011;35079;52.704;13.814;2023-02-28T06:00:44;12.07;;;5.25;;
49241;SDS011;35079;52.704;13.814;2023-02-28T06:03:10;15.60;;;5.72;;
49241;SDS011;35079;52.704;13.814;2023-02-28T06:05:36;16.80;;;6.22;;
49241;SDS011;35079;52.704;13.814;2023-02-28T06:08:03;13.57;;;5.78;;
49241;SDS011;35079;52.704;13.814;2023-02-28T06:10:30;11.50;;;5.90;;
49241;SDS011;35079;52.704;13.814;2023-02-28T06:12:59;13.52;;;6.20;;
49241;SDS011;35079;52.704;13.814;2023-02-28T06:15:27;13.27;;;5.85;;
49241;SDS011;35079;52.704;13.814;2023-02-28T06:17:53;11.93;;;5.55;;
49241;SDS011;35079;52.704;13.814;2023-02-28T06:20:21;13.70;;;6.13;;
49241;SDS011;35079;52.704;13.814;2023-02-28T06:22:47;12.07;;;5.95;;
49241;SDS011;35079;52.704;13.814;2023-02-28T06:25:15;9.52;;;5.30;;
49241;SDS011;35079;52.704;13.814;2023-02-28T06:27:41;11.50;;;5.28;;
49241;SDS011;35079;52.704;13.814;2023-02-28T06:30:08;11.93;;;5.55;;
49241;SDS011;35079;52.704;13.814;2023-02-28T06:32:34;13.55;;;6.68;;
49241;SDS011;35079;52.704;13.814;2023-02-28T06:35:00;11.63;;;5.70;;
49241;SDS011;35079;52.704;13.814;2023-02-28T06:37:26;15.70;;;6.45;;
49241;SDS011;35079;52.704;13.814;2023-02-28T06:39:52;12.50;;;5.45;;
49241;SDS011;35079;52.704;13.814;2023-02-28T06:42:21;12.35;;;6.22;;
49241;SDS011;35079;52.704;13.814;2023-02-28T06:44:49;11.20;;;5.55;;
49241;SDS011;35079;52.704;13.814;2023-02-28T06:47:15;11.95;;;5.25;;
49241;SDS011;35079;52.704;13.814;2023-02-28T06:49:41;10.13;;;5.15;;
49241;SDS011;35079;52.704;13.814;2023-02-28T06:52:07;12.85;;;6.30;;
49241;SDS011;35079;52.704;13.814;2023-02-28T06:54:35;10.90;;;6.15;;
49241;SDS011;35079;52.704;13.814;2023-02-28T06:57:01;12.15;;;6.57;;
49241;SDS011;35079;52.704;13.814;2023-02-28T06:59:27;10.50;;;5.57;;
49241;SDS011;35079;52.704;13.814;2023-02-28T07:01:53;9.13;;;5.05;;
49241;SDS011;35079;52.704;13.814;2023-02-28T07:04:19;10.30;;;5.53;;
49241;SDS011;35079;52.704;13.814;2023-02-28T07:06:45;17.40;;;10.77;;
49241;SDS011;35079;52.704;13.814;2023-02-28T07:09:11;12.52;;;6.72;;
49241;SDS011;35079;52.704;13.814;2023-02-28T07:11:37;12.85;;;6.65;;
49241;SDS011;35079;52.704;13.814;2023-02-28T07:14:02;9.90;;;6.18;;
49241;SDS011;35079;52.704;13.814;2023-02-28T07:16:28;12.60;;;7.07;;
49241;SDS011;35079;52.704;13.814;2023-02-28T07:18:54;10.13;;;7.35;;
49241;SDS011;35079;52.704;13.814;2023-02-28T07:21:20;11.88;;;7.90;;
49241;SDS011;35079;52.704;13.814;2023-02-28T07:23:46;14.80;;;7.00;;
49241;SDS011;35079;52.704;13.814;2023-02-28T07:26:13;12.00;;;7.05;;
49241;SDS011;35079;52.704;13.814;2023-02-28T07:28:48;9.68;;;5.82;;
49241;SDS011;35079;52.704;13.814;2023-02-28T07:31:14;12.32;;;6.00;;
49241;SDS011;35079;52.704;13.814;2023-02-28T07:33:41;12.50;;;7.70;;
49241;SDS011;35079;52.704;13.814;2023-02-28T07:36:08;10.82;;;6.95;;
49241;SDS011;35079;52.704;13.814;2023-02-28T07:38:40;10.07;;;6.30;;
49241;SDS011;35079;52.704;13.814;2023-02-28T07:41:07;10.85;;;6.85;;
49241;SDS011;35079;52.704;13.814;2023-02-28T07:43:33;11.63;;;7.13;;
49241;SDS011;35079;52.704;13.814;2023-02-28T07:46:04;11.07;;;7.03;;
49241;SDS011;35079;52.704;13.814;2023-02-28T07:48:31;11.82;;;6.22;;
49241;SDS011;35079;52.704;13.814;2023-02-28T07:50:58;11.07;;;6.28;;
49241;SDS011;35079;52.704;13.814;2023-02-28T07:53:24;9.35;;;5.15;;
49241;SDS011;35079;52.704;13.814;2023-02-28T07:55:50;8.73;;;5.22;;
49241;SDS011;35079;52.704;13.814;2023-02-28T07:58:16;12.18;;;5.78;;
49241;SDS011;35079;52.704;13.814;2023-02-28T08:00:41;8.32;;;5.35;;
49241;SDS011;35079;52.704;13.814;2023-02-28T08:03:09;7.50;;;5.05;;
49241;SDS011;35079;52.704;13.814;2023-02-28T08:05:40;7.32;;;4.65;;
49241;SDS011;35079;52.704;13.814;2023-02-28T08:08:06;8.95;;;4.70;;
49241;SDS011;35079;52.704;13.814;2023-02-28T08:10:33;8.05;;;4.75;;
49241;SDS011;35079;52.704;13.814;2023-02-28T08:12:59;6.85;;;4.88;;
49241;SDS011;35079;52.704;13.814;2023-02-28T08:15:24;8.02;;;5.00;;
49241;SDS011;35079;52.704;13.814;2023-02-28T08:17:50;7.30;;;4.38;;
49241;SDS011;35079;52.704;13.814;2023-02-28T08:20:16;7.32;;;4.05;;
49241;SDS011;35079;52.704;13.814;2023-02-28T08:22:42;6.43;;;4.25;;
49241;SDS011;35079;52.704;13.814;2023-02-28T08:25:07;8.77;;;4.85;;
49241;SDS011;35079;52.704;13.814;2023-02-28T08:27:34;6.85;;;4.50;;
49241;SDS011;35079;52.704;13.814;2023-02-28T08:30:01;6.68;;;4.30;;
49241;SDS011;35079;52.704;13.814;2023-02-28T08:32:28;5.07;;;3.38;;
49241;SDS011;35079;52.704;13.814;2023-02-28T08:34:53;5.75;;;3.38;;
49241;SDS011;35079;52.704;13.814;2023-02-28T08:37:19;5.53;;;3.45;;
49241;SDS011;35079;52.704;13.814;2023-02-28T08:39:45;4.53;;;2.72;;
49241;SDS011;35079;52.704;13.814;2023-02-28T08:42:10;6.82;;;3.33;;
49241;SDS011;35079;52.704;13.814;2023-02-28T08:44:36;4.70;;;2.92;;
49241;SDS011;35079;52.704;13.814;2023-02-28T08:47:02;4.85;;;3.00;;
49241;SDS011;35079;52.704;13.814;2023-02-28T08:49:27;3.58;;;2.40;;
49241;SDS011;35079;52.704;13.814;2023-02-28T08:51:53;3.42;;;1.98;;
49241;SDS011;35079;52.704;13.814;2023-02-28T08:54:20;3.15;;;2.42;;
49241;SDS011;35079;52.704;13.814;2023-02-28T08:56:46;3.67;;;2.75;;
49241;SDS011;35079;52.704;13.814;2023-02-28T08:59:12;4.57;;;2.90;;
49241;SDS011;35079;52.704;13.814;2023-02-28T09:01:38;4.50;;;3.33;;
49241;SDS011;35079;52.704;13.814;2023-02-28T09:04:06;4.50;;;2.88;;
49241;SDS011;35079;52.704;13.814;2023-02-28T09:06:33;5.15;;;3.22;;
49241;SDS011;35079;52.704;13.814;2023-02-28T09:08:59;4.43;;;2.85;;
49241;SDS011;35079;52.704;13.814;2023-02-28T09:11:26;5.28;;;3.20;;
49241;SDS011;35079;52.704;13.814;2023-02-28T09:13:53;3.50;;;2.42;;
49241;SDS011;35079;52.704;13.814;2023-02-28T09:16:20;2.30;;;2.10;;
49241;SDS011;35079;52.704;13.814;2023-02-28T09:18:46;2.88;;;2.58;;
49241;SDS011;35079;52.704;13.814;2023-02-28T09:21:13;4.07;;;2.20;;
49241;SDS011;35079;52.704;13.814;2023-02-28T09:23:41;2.80;;;1.98;;
49241;SDS011;35079;52.704;13.814;2023-02-28T09:26:11;1.67;;;1.52;;
49241;SDS011;35079;52.704;13.814;2023-02-28T09:28:47;4.10;;;1.67;;
49241;SDS011;35079;52.704;13.814;2023-02-28T09:31:13;3.95;;;1.70;;
49241;SDS011;35079;52.704;13.814;2023-02-28T09:33:46;3.47;;;1.80;;
49241;SDS011;35079;52.704;13.814;2023-02-28T09:36:12;2.10;;;1.90;;
49241;SDS011;35079;52.704;13.814;2023-02-28T09:39:23;3.58;;;2.10;;
49241;SDS011;35079;52.704;13.814;2023-02-28T09:41:28;2.78;;;2.00;;
49241;SDS011;35079;52.704;13.814;2023-02-28T09:44:05;3.75;;;1.77;;
49241;SDS011;35079;52.704;13.814;2023-02-28T09:46:39;2.92;;;1.95;;
49241;SDS011;35079;52.704;13.814;2023-02-28T09:49:11;2.25;;;1.70;;
49241;SDS011;35079;52.704;13.814;2023-02-28T09:51:43;1.88;;;1.63;;
49241;SDS011;35079;52.704;13.814;2023-02-28T09:54:16;2.75;;;1.85;;
49241;SDS011;35079;52.704;13.814;2023-02-28T09:56:52;1.88;;;1.58;;
49241;SDS011;35079;52.704;13.814;2023-02-28T09:59:28;2.47;;;1.70;;
49241;SDS011;35079;52.704;13.814;2023-02-28T10:05:14;1.65;;;1.55;;
49241;SDS011;35079;52.704;13.814;2023-02-28T10:07:55;3.00;;;2.05;;
49241;SDS011;35079;52.704;13.814;2023-02-28T10:10:37;2.15;;;1.65;;
49241;SDS011;35079;52.704;13.814;2023-02-28T10:15:58;3.88;;;2.03;;
49241;SDS011;35079;52.704;13.814;2023-02-28T10:22:13;4.57;;;2.92;;
49241;SDS011;35079;52.704;13.814;2023-02-28T10:26:52;5.50;;;2.88;;
49241;SDS011;35079;52.704;13.814;2023-02-28T10:29:34;4.47;;;2.75;;
49241;SDS011;35079;52.704;13.814;2023-02-28T10:32:01;5.10;;;2.75;;
49241;SDS011;35079;52.704;13.814;2023-02-28T10:34:28;3.50;;;2.92;;
49241;SDS011;35079;52.704;13.814;2023-02-28T10:36:54;3.40;;;2.47;;
49241;SDS011;35079;52.704;13.814;2023-02-28T10:42:29;5.45;;;2.80;;
49241;SDS011;35079;52.704;13.814;2023-02-28T10:47:38;4.45;;;3.08;;
49241;SDS011;35079;52.704;13.814;2023-02-28T10:50:27;6.68;;;3.28;;
49241;SDS011;35079;52.704;13.814;2023-02-28T10:56:14;4.50;;;2.78;;
49241;SDS011;35079;52.704;13.814;2023-02-28T11:04:01;6.38;;;3.03;;
49241;SDS011;35079;52.704;13.814;2023-02-28T11:06:31;4.18;;;2.90;;
49241;SDS011;35079;52.704;13.814;2023-02-28T11:08:58;4.20;;;2.85;;
49241;SDS011;35079;52.704;13.814;2023-02-28T11:11:27;3.95;;;2.60;;
49241;SDS011;35079;52.704;13.814;2023-02-28T11:13:56;5.40;;;2.80;;
49241;SDS011;35079;52.704;13.814;2023-02-28T11:16:36;4.45;;;3.08;;
49241;SDS011;35079;52.704;13.814;2023-02-28T11:19:03;3.97;;;2.67;;
49241;SDS011;35079;52.704;13.814;2023-02-28T11:21:33;3.70;;;2.70;;
49241;SDS011;35079;52.704;13.814;2023-02-28T11:24:06;5.90;;;3.08;;
49241;SDS011;35079;52.704;13.814;2023-02-28T11:26:49;5.45;;;3.70;;
49241;SDS011;35079;52.704;13.814;2023-02-28T11:29:18;4.15;;;3.08;;
49241;SDS011;35079;52.704;13.814;2023-02-28T11:31:55;4.95;;;2.92;;
49241;SDS011;35079;52.704;13.814;2023-02-28T11:34:27;5.32;;;2.95;;
49241;SDS011;35079;52.704;13.814;2023-02-28T11:36:54;6.60;;;3.28;;
49241;SDS011;35079;52.704;13.814;2023-02-28T11:39:22;4.95;;;3.20;;
49241;SDS011;35079;52.704;13.814;2023-02-28T11:52:19;5.13;;;3.10;;
49241;SDS011;35079;52.704;13.814;2023-02-28T11:57:52;4.95;;;3.03;;
49241;SDS011;35079;52.704;13.814;2023-02-28T12:00:32;4.55;;;3.28;;
49241;SDS011;35079;52.704;13.814;2023-02-28T12:03:06;4.18;;;3.05;;
49241;SDS011;35079;52.704;13.814;2023-02-28T12:05:45;4.03;;;3.03;;
49241;SDS011;35079;52.704;13.814;2023-02-28T12:27:32;4.63;;;3.05;;
49241;SDS011;35079;52.704;13.814;2023-02-28T12:32:42;4.85;;;2.72;;
49241;SDS011;35079;52.704;13.814;2023-02-28T12:40:21;4.20;;;3.00;;
49241;SDS011;35079;52.704;13.814;2023-02-28T12:42:49;4.80;;;2.85;;
49241;SDS011;35079;52.704;13.814;2023-02-28T12:45:39;3.42;;;2.80;;
49241;SDS011;35079;52.704;13.814;2023-02-28T12:48:11;4.25;;;2.70;;
49241;SDS011;35079;52.704;13.814;2023-02-28T12:50:44;4.55;;;3.25;;
49241;SDS011;35079;52.704;13.814;2023-02-28T12:53:17;4.35;;;2.63;;
49241;SDS011;35079;52.704;13.814;2023-02-28T13:03:40;4.50;;;2.47;;
49241;SDS011;35079;52.704;13.814;2023-02-28T13:06:22;3.08;;;2.42;;
49241;SDS011;35079;52.704;13.814;2023-02-28T13:09:17;4.53;;;2.58;;
49241;SDS011;35079;52.704;13.814;2023-02-28T13:11:47;3.78;;;2.60;;
49241;SDS011;35079;52.704;13.814;2023-02-28T13:14:22;3.60;;;2.35;;
49241;SDS011;35079;52.704;13.814;2023-02-28T13:19:22;2.55;;;2.10;;
49241;SDS011;35079;52.704;13.814;2023-02-28T13:21:51;3.55;;;2.50;;
49241;SDS011;35079;52.704;13.814;2023-02-28T13:24:39;4.60;;;2.47;;
49241;SDS011;35079;52.704;13.814;2023-02-28T13:27:17;3.17;;;2.35;;
49241;SDS011;35079;52.704;13.814;2023-02-28T13:29:49;4.38;;;2.30;;
49241;SDS011;35079;52.704;13.814;2023-02-28T13:32:19;3.28;;;2.20;;
49241;SDS011;35079;52.704;13.814;2023-02-28T13:40:06;2.45;;;1.88;;
49241;SDS011;35079;52.704;13.814;2023-02-28T13:45:21;2.25;;;1.90;;
49241;SDS011;35079;52.704;13.814;2023-02-28T13:47:53;3.65;;;2.33;;
49241;SDS011;35079;52.704;13.814;2023-02-28T13:55:48;4.95;;;2.70;;
49241;SDS011;35079;52.704;13.814;2023-02-28T14:06:55;6.57;;;3.45;;
49241;SDS011;35079;52.704;13.814;2023-02-28T14:09:25;3.78;;;2.75;;
49241;SDS011;35079;52.704;13.814;2023-02-28T14:11:57;3.97;;;2.60;;
49241;SDS011;35079;52.704;13.814;2023-02-28T14:15:01;2.90;;;2.38;;
49241;SDS011;35079;52.704;13.814;2023-02-28T14:17:30;4.72;;;3.05;;
49241;SDS011;35079;52.704;13.814;2023-02-28T14:19:56;4.85;;;2.80;;
49241;SDS011;35079;52.704;13.814;2023-02-28T14:31:05;5.40;;;2.70;;
49241;SDS011;35079;52.704;13.814;2023-02-28T14:33:55;4.68;;;3.25;;
49241;SDS011;35079;52.704;13.814;2023-02-28T14:36:45;4.75;;;2.70;;
49241;SDS011;35079;52.704;13.814;2023-02-28T14:39:14;4.70;;;2.92;;
49241;SDS011;35079;52.704;13.814;2023-02-28T14:41:42;5.25;;;2.90;;
49241;SDS011;35079;52.704;13.814;2023-02-28T14:44:13;4.82;;;2.72;;
49241;SDS011;35079;52.704;13.814;2023-02-28T14:46:39;4.28;;;2.65;;
49241;SDS011;35079;52.704;13.814;2023-02-28T14:49:07;3.75;;;2.83;;
49241;SDS011;35079;52.704;13.814;2023-02-28T14:51:46;4.78;;;2.47;;
49241;SDS011;35079;52.704;13.814;2023-02-28T14:54:26;4.00;;;2.55;;
49241;SDS011;35079;52.704;13.814;2023-02-28T14:56:52;4.60;;;3.00;;
49241;SDS011;35079;52.704;13.814;2023-02-28T14:59:25;3.88;;;2.50;;
49241;SDS011;35079;52.704;13.814;2023-02-28T15:04:53;5.32;;;3.13;;
49241;SDS011;35079;52.704;13.814;2023-02-28T15:07:20;7.38;;;3.90;;
49241;SDS011;35079;52.704;13.814;2023-02-28T15:10:06;4.80;;;3.15;;
49241;SDS011;35079;52.704;13.814;2023-02-28T15:12:45;6.15;;;3.10;;
49241;SDS011;35079;52.704;13.814;2023-02-28T15:15:28;5.93;;;3.22;;
49241;SDS011;35079;52.704;13.814;2023-02-28T15:21:07;5.90;;;3.00;;
49241;SDS011;35079;52.704;13.814;2023-02-28T15:23:37;5.13;;;2.83;;
49241;SDS011;35079;52.704;13.814;2023-02-28T15:26:05;5.03;;;3.00;;
49241;SDS011;35079;52.704;13.814;2023-02-28T15:28:31;6.65;;;3.67;;
49241;SDS011;35079;52.704;13.814;2023-02-28T15:31:01;9.68;;;5.90;;
49241;SDS011;35079;52.704;13.814;2023-02-28T15:33:30;11.45;;;6.80;;
49241;SDS011;35079;52.704;13.814;2023-02-28T15:36:14;6.90;;;4.13;;
49241;SDS011;35079;52.704;13.814;2023-02-28T15:38:42;5.55;;;3.03;;
49241;SDS011;35079;52.704;13.814;2023-02-28T15:41:23;7.13;;;3.10;;
49241;SDS011;35079;52.704;13.814;2023-02-28T15:46:57;4.97;;;3.10;;
49241;SDS011;35079;52.704;13.814;2023-02-28T15:49:26;3.95;;;3.15;;
49241;SDS011;35079;52.704;13.814;2023-02-28T15:51:53;8.18;;;4.03;;
49241;SDS011;35079;52.704;13.814;2023-02-28T15:54:24;5.18;;;3.70;;
49241;SDS011;35079;52.704;13.814;2023-02-28T15:57:03;5.07;;;3.58;;
49241;SDS011;35079;52.704;13.814;2023-02-28T15:59:33;5.97;;;3.65;;
49241;SDS011;35079;52.704;13.814;2023-02-28T16:04:59;6.80;;;3.33;;
49241;SDS011;35079;52.704;13.814;2023-02-28T16:07:25;4.30;;;2.95;;
49241;SDS011;35079;52.704;13.814;2023-02-28T16:09:52;4.32;;;2.72;;
49241;SDS011;35079;52.704;13.814;2023-02-28T16:12:17;4.70;;;2.90;;
49241;SDS011;35079;52.704;13.814;2023-02-28T16:14:45;4.35;;;3.00;;
49241;SDS011;35079;52.704;13.814;2023-02-28T16:17:21;3.35;;;2.50;;
49241;SDS011;35079;52.704;13.814;2023-02-28T16:19:49;4.45;;;2.72;;
49241;SDS011;35079;52.704;13.814;2023-02-28T16:22:15;3.30;;;2.58;;
49241;SDS011;35079;52.704;13.814;2023-02-28T16:24:41;3.72;;;2.92;;
49241;SDS011;35079;52.704;13.814;2023-02-28T16:27:06;4.38;;;2.83;;
49241;SDS011;35079;52.704;13.814;2023-02-28T16:29:43;6.32;;;3.92;;
49241;SDS011;35079;52.704;13.814;2023-02-28T16:32:10;8.65;;;4.85;;
49241;SDS011;35079;52.704;13.814;2023-02-28T16:34:37;8.25;;;5.10;;
49241;SDS011;35079;52.704;13.814;2023-02-28T16:37:07;11.38;;;7.35;;
49241;SDS011;35079;52.704;13.814;2023-02-28T16:39:36;14.18;;;8.45;;
49241;SDS011;35079;52.704;13.814;2023-02-28T16:42:02;12.90;;;7.75;;
49241;SDS011;35079;52.704;13.814;2023-02-28T16:44:32;11.27;;;7.18;;
49241;SDS011;35079;52.704;13.814;2023-02-28T16:46:59;9.13;;;6.30;;
49241;SDS011;35079;52.704;13.814;2023-02-28T16:49:26;8.27;;;5.40;;
49241;SDS011;35079;52.704;13.814;2023-02-28T16:51:52;10.55;;;5.70;;
49241;SDS011;35079;52.704;13.814;2023-02-28T16:54:18;6.30;;;4.30;;
49241;SDS011;35079;52.704;13.814;2023-02-28T16:56:44;7.72;;;4.20;;
49241;SDS011;35079;52.704;13.814;2023-02-28T16:59:12;8.02;;;4.13;;
49241;SDS011;35079;52.704;13.814;2023-02-28T17:01:38;8.70;;;4.60;;
49241;SDS011;35079;52.704;13.814;2023-02-28T17:04:04;8.15;;;4.30;;
49241;SDS011;35079;52.704;13.814;2023-02-28T17:06:30;10.18;;;4.53;;
49241;SDS011;35079;52.704;13.814;2023-02-28T17:08:56;9.27;;;4.00;;
49241;SDS011;35079;52.704;13.814;2023-02-28T17:11:23;7.18;;;4.20;;
49241;SDS011;35079;52.704;13.814;2023-02-28T17:13:50;6.22;;;4.10;;
49241;SDS011;35079;52.704;13.814;2023-02-28T17:16:23;7.60;;;4.47;;
49241;SDS011;35079;52.704;13.814;2023-02-28T17:18:52;9.18;;;4.97;;